Time;durP1;ratioP1;P1;durP2;ratioP2;P2;SDS_P1;SDS_P2;PMS_P1;PMS_P2;Temp;Humidity;BMP_temperature;BMP_pressure;BME280_temperature;BME280_humidity;BME280_pressure;Samples;Min_cycle;Max_cycle;Signal;HPM_P1;HPM_P2
2022/05/24 00:04:52;;;;;;;3.60;3.20;;;;;;;13.34;56.63;97905.69;219747;1272;22537;-68
2022/05/24 00:09:54;;;;;;;3.80;2.90;;;;;;;13.32;56.81;97905.37;219830;1271;376470;-67
2022/05/24 00:20:23;;;;;;;2.80;2.60;;;;;;;13.26;56.99;97898.67;220109;1270;24269;-68
2022/05/24 00:25:27;;;;;;;3.90;2.60;;;;;;;13.21;57.03;97894.39;219712;1270;24352;-68
2022/05/24 00:30:39;;;;;;;4.60;2.60;;;;;;;13.15;57.22;97886.44;221033;1270;25529;-68
2022/05/24 00:35:43;;;;;;;4.40;2.80;;;;;;;13.14;57.25;97883.93;220109;1270;24464;-68
2022/05/24 00:41:04;;;;;;;;;;;;;;;13.15;57.31;97884.72;219479;1271;22537;-68
2022/05/24 00:46:13;;;;;;;2.90;2.60;;;;;;;13.14;57.43;97881.72;220422;1272;26646;-68
2022/05/24 00:51:25;;;;;;;4.70;2.80;;;;;;;13.13;57.42;97863.33;219291;1271;22576;-68
2022/05/24 00:57:19;;;;;;;3.60;2.80;;;;;;;13.09;57.40;97856.27;219640;1273;24209;-67
2022/05/24 01:02:36;;;;;;;3.30;2.60;;;;;;;12.99;57.64;97851.27;220462;1270;22583;-68
2022/05/24 01:07:39;;;;;;;3.70;2.30;;;;;;;12.89;57.79;97850.89;220426;1270;25535;-68
2022/05/24 01:12:49;;;;;;;3.80;2.40;;;;;;;12.78;57.95;97844.02;219931;1270;22629;-68
2022/05/24 01:17:54;;;;;;;;;;;;;;;12.66;58.05;97836.63;219944;1270;22536;-68
2022/05/24 01:23:08;;;;;;;2.60;2.40;;;;;;;12.51;58.43;97828.48;219743;1270;25328;-69
2022/05/24 01:28:19;;;;;;;2.70;2.30;;;;;;;12.36;58.65;97821.74;219816;1270;22585;-68
2022/05/24 01:39:02;;;;;;;3.90;2.40;;;;;;;12.04;59.33;97805.98;219820;1270;22560;-67
2022/05/24 01:44:25;;;;;;;3.10;2.70;;;;;;;11.89;60.03;97807.81;219943;1270;24108;-69
2022/05/24 01:49:33;;;;;;;3.10;2.80;;;;;;;11.79;60.11;97801.41;220893;1269;22556;-67
2022/05/24 01:54:47;;;;;;;3.70;2.40;;;;;;;11.73;60.31;97798.69;220413;1269;24119;-67
2022/05/24 01:59:56;;;;;;;3.10;2.80;;;;;;;11.73;60.81;97792.48;220121;1270;25427;-68
2022/05/24 02:04:58;;;;;;;3.40;2.80;;;;;;;11.75;60.97;97784.83;219926;1271;22553;-68
2022/05/24 02:10:08;;;;;;;8.00;3.30;;;;;;;11.78;60.82;97785.95;220022;1270;22621;-67
2022/05/24 02:15:14;;;;;;;3.40;3.10;;;;;;;11.76;61.03;97790.92;220027;1270;25252;-68
2022/05/24 02:20:26;;;;;;;4.60;2.80;;;;;;;11.76;61.25;97791.84;220983;1270;24236;-68
2022/05/24 02:25:56;;;;;;;3.70;2.80;;;;;;;11.78;61.32;97784.80;220154;1270;22574;-67
2022/05/24 02:31:02;;;;;;;3.70;3.30;;;;;;;11.87;61.58;97787.98;220016;1270;25588;-68
2022/05/24 02:36:07;;;;;;;3.30;2.90;;;;;;;11.92;61.53;97784.48;220300;1270;22533;-67
2022/05/24 02:46:35;;;;;;;4.20;3.30;;;;;;;12.01;61.65;97778.62;219807;1270;22884;-67
2022/05/24 02:51:39;;;;;;;3.60;3.10;;;;;;;12.07;61.68;97775.09;220698;1270;22630;-68
2022/05/24 02:56:43;;;;;;;4.20;3.10;;;;;;;12.13;61.91;97763.46;220282;1270;22969;-68
2022/05/24 03:01:49;;;;;;;3.70;2.90;;;;;;;12.20;61.85;97764.17;219594;1272;24236;-68
2022/05/24 03:18:17;;;;;;;5.30;3.50;;;;;;;12.44;61.81;97753.77;220016;1271;25332;-67
2022/05/24 03:23:33;;;;;;;4.70;3.20;;;;;;;12.50;61.76;97747.23;219835;1270;22544;-67
2022/05/24 03:28:38;;;;;;;4.80;3.00;;;;;;;12.52;61.56;97729.20;219835;1270;24393;-67
2022/05/24 03:33:42;;;;;;;4.40;3.40;;;;;;;12.58;61.69;97736.11;219958;1270;22531;-68
2022/05/24 03:38:44;;;;;;;4.00;3.20;;;;;;;12.62;61.79;97733.94;221128;1272;26407;-68
2022/05/24 03:43:52;;;;;;;4.40;3.40;;;;;;;12.66;61.90;97746.29;219978;1271;22768;-67
2022/05/24 03:48:55;;;;;;;4.70;3.20;;;;;;;12.70;61.75;97759.80;219493;1271;22629;-67
2022/05/24 03:54:22;;;;;;;3.90;3.50;;;;;;;12.74;61.86;97781.05;219775;1271;25254;-67
2022/05/24 03:59:27;;;;;;;4.20;3.80;;;;;;;12.79;61.86;97788.95;219742;1270;23474;-68
2022/05/24 04:04:49;;;;;;;4.40;3.40;;;;;;;12.87;61.92;97786.21;219608;1271;22572;-68
2022/05/24 04:09:55;;;;;;;4.00;3.60;;;;;;;12.98;61.93;97792.39;219972;1271;22576;-68
2022/05/24 04:15:00;;;;;;;3.90;3.40;;;;;;;13.10;61.93;97793.38;220123;1270;22613;-68
2022/05/24 04:20:10;;;;;;;4.90;3.70;;;;;;;13.22;61.77;97806.53;220526;1268;25368;-68
2022/05/24 04:25:20;;;;;;;4.80;4.00;;;;;;;13.27;61.82;97807.34;219964;1270;24723;-68
2022/05/24 04:30:23;;;;;;;4.80;3.70;;;;;;;13.33;61.73;97800.86;220790;1271;22603;-68
2022/05/24 04:35:29;;;;;;;5.80;3.60;;;;;;;13.40;61.69;97806.60;220841;1269;22563;-68
2022/05/24 04:45:56;;;;;;;4.70;4.00;;;;;;;13.59;61.61;97810.86;220194;1271;22584;-69
2022/05/24 04:50:59;;;;;;;5.70;4.10;;;;;;;13.68;61.46;97811.24;220971;1270;22565;-67
2022/05/24 04:56:04;;;;;;;4.70;4.20;;;;;;;13.75;61.39;97819.25;220166;1270;24261;-69
2022/05/24 05:01:09;;;;;;;4.90;4.30;;;;;;;13.82;61.31;97825.50;220558;1271;22528;-69
2022/05/24 05:06:13;;;;;;;6.60;4.30;;;;;;;13.93;61.24;97826.30;220120;1271;23868;-69
2022/05/24 05:11:20;;;;;;;4.40;3.90;;;;;;;14.00;61.04;97819.23;220008;1272;22593;-66
2022/05/24 05:16:28;;;;;;;5.20;3.90;;;;;;;14.07;61.01;97819.30;219578;1271;22628;-68
2022/05/24 05:21:37;;;;;;;5.50;3.80;;;;;;;14.14;61.10;97829.40;220153;1270;22996;-68
2022/05/24 05:26:39;;;;;;;5.70;4.20;;;;;;;14.27;61.13;97834.58;221317;1271;22589;-68
2022/05/24 05:31:42;;;;;;;6.10;3.90;;;;;;;14.43;60.80;97839.70;220168;1270;22542;-68
2022/05/24 05:36:44;;;;;;;6.30;4.50;;;;;;;14.57;60.58;97843.48;219852;1271;25401;-68
2022/05/24 05:41:47;;;;;;;6.40;4.30;;;;;;;14.72;60.44;97848.27;220341;1271;24187;-68
2022/05/24 05:46:50;;;;;;;6.20;4.20;;;;;;;14.95;60.48;97852.04;219351;1271;25474;-68
2022/05/24 05:51:57;;;;;;;6.40;4.00;;;;;;;15.28;59.97;97856.14;219334;1271;25616;-68
2022/05/24 05:57:00;;;;;;;3.70;3.40;;;;;;;15.62;59.46;97847.00;220565;1271;25315;-67
2022/05/24 06:02:05;;;;;;;5.10;3.70;;;;;;;15.98;58.98;97848.95;219320;1270;22594;-68
2022/05/24 06:07:08;;;;;;;7.90;4.10;;;;;;;16.32;58.41;97846.26;220705;1271;22567;-68
2022/05/24 06:12:13;;;;;;;8.50;3.70;;;;;;;16.65;57.85;97845.13;219558;1270;22545;-66
2022/05/24 06:17:18;;;;;;;8.60;4.10;;;;;;;17.03;57.31;97847.28;219912;1271;22769;-67
2022/05/24 06:22:26;;;;;;;11.10;4.60;;;;;;;17.46;56.88;97856.90;219550;1271;22975;-67
2022/05/24 06:27:31;;;;;;;8.00;3.80;;;;;;;17.86;56.34;97854.13;219418;1270;25568;-67
2022/05/24 06:32:34;;;;;;;3.80;3.00;;;;;;;18.15;55.38;97854.34;221788;1271;24807;-66
2022/05/24 06:37:37;;;;;;;4.40;2.90;;;;;;;18.30;54.62;97855.53;219599;1271;23626;-68
2022/05/24 06:42:39;;;;;;;4.10;2.80;;;;;;;18.48;54.09;97860.00;219437;1271;22554;-68
2022/05/24 06:47:45;;;;;;;4.40;2.30;;;;;;;18.63;53.60;97866.59;222122;1271;25675;-67
2022/05/24 06:52:52;;;;;;;4.20;2.60;;;;;;;18.67;53.37;97865.71;219515;1271;22544;-67
2022/05/24 06:58:08;;;;;;;4.30;2.90;;;;;;;18.66;52.94;97861.59;219432;1272;23974;-68
2022/05/24 07:03:17;;;;;;;3.40;2.60;;;;;;;18.69;53.02;97862.27;219649;1271;25379;-67
2022/05/24 07:08:20;;;;;;;3.70;2.80;;;;;;;18.84;52.63;97859.48;220745;1271;23168;-68
2022/05/24 07:13:29;;;;;;;5.60;2.70;;;;;;;19.03;52.58;97865.20;219973;1271;25447;-67
2022/05/24 07:18:39;;;;;;;5.20;2.90;;;;;;;19.16;52.10;97866.74;219628;1271;26483;-68
2022/05/24 07:23:56;;;;;;;4.40;3.00;;;;;;;19.30;52.03;97868.27;219442;1270;25241;-67
2022/05/24 07:28:58;;;;;;;5.70;2.90;;;;;;;19.56;51.75;97864.77;219628;1271;25215;-68
2022/05/24 07:34:04;;;;;;;4.80;2.60;;;;;;;19.62;50.90;97867.55;219785;1271;24224;-67
2022/05/24 07:39:07;;;;;;;5.00;3.00;;;;;;;19.81;50.90;97866.63;220585;1272;25257;-68
2022/05/24 07:50:02;;;;;;;3.90;3.10;;;;;;;19.48;50.71;97873.59;219660;1271;23209;-67
2022/05/24 07:55:05;;;;;;;4.10;3.00;;;;;;;19.71;51.18;97869.38;219641;1271;22563;-68
2022/05/24 08:00:08;;;;;;;4.70;2.80;;;;;;;20.02;50.46;97868.17;220282;1271;22671;-67
2022/05/24 08:05:13;;;;;;;5.40;3.00;;;;;;;20.10;50.21;97866.91;219543;1271;23495;-67
2022/05/24 08:10:17;;;;;;;8.20;3.80;;;;;;;20.05;50.01;97877.82;219525;1271;23112;-68
2022/05/24 08:15:19;;;;;;;4.00;2.80;;;;;;;20.06;50.32;97886.23;219728;1271;22534;-67
2022/05/24 08:20:25;;;;;;;4.10;3.00;;;;;;;20.20;50.30;97884.02;219857;1271;25252;-68
2022/05/24 08:25:38;;;;;;;4.90;2.80;;;;;;;20.66;50.34;97885.20;219605;1271;26623;-68
2022/05/24 08:30:41;;;;;;;5.70;3.50;;;;;;;20.74;49.08;97887.45;220134;1271;22819;-67
2022/05/24 08:35:55;;;;;;;3.70;3.10;;;;;;;20.52;49.28;97891.14;219943;1271;22570;-68
2022/05/24 08:42:12;;;;;;;4.20;2.90;;;;;;;20.44;49.91;97892.64;219507;1270;22561;-67
2022/05/24 08:53:02;;;;;;;5.80;3.80;;;;;;;21.28;49.65;97905.45;219129;1270;22448;-67
2022/05/24 08:58:27;;;;;;;4.50;3.40;;;;;;;21.30;49.34;97901.64;219290;1274;22710;-68
2022/05/24 09:03:30;;;;;;;5.50;3.80;;;;;;;21.34;49.45;97896.39;219452;1274;25245;-68
2022/05/24 09:08:56;;;;;;;7.00;3.50;;;;;;;21.23;49.12;97890.56;219368;1275;22549;-68
2022/05/24 09:14:33;;;;;;;8.40;3.60;;;;;;;20.82;49.45;97886.96;219436;1274;25248;-68
2022/05/24 09:19:42;;;;;;;4.80;3.60;;;;;;;20.49;50.08;97875.88;219038;1274;22560;-69
2022/05/24 09:25:01;;;;;;;7.90;3.90;;;;;;;20.35;50.41;97880.03;221186;1272;22552;-69
2022/05/24 09:30:08;;;;;;;6.20;3.50;;;;;;;20.17;51.04;97879.48;219310;1274;22537;-67
2022/05/24 09:35:16;;;;;;;3.80;3.30;;;;;;;20.10;51.63;97885.64;219945;1274;22536;-68
2022/05/24 09:40:22;;;;;;;6.00;3.90;;;;;;;20.00;52.76;97897.65;219140;1274;22607;-68
2022/05/24 09:45:36;;;;;;;8.20;4.60;;;;;;;19.86;53.70;97907.69;220205;1275;22538;-68
2022/05/24 09:50:39;;;;;;;6.00;4.60;;;;;;;19.74;55.16;97911.31;219716;1274;22574;-67
2022/05/24 09:56:01;;;;;;;5.50;4.60;;;;;;;19.67;55.58;97911.63;219080;1274;22697;-68
2022/05/24 10:01:24;;;;;;;5.90;5.30;;;;;;;19.66;55.97;97913.23;219708;1274;24209;-69
2022/05/24 10:06:31;;;;;;;8.10;5.40;;;;;;;19.68;56.55;97919.23;218883;1274;22557;-68
2022/05/24 10:11:39;;;;;;;9.40;4.80;;;;;;;19.73;56.94;97917.67;220778;1274;24228;-69
2022/05/24 10:16:52;;;;;;;7.30;4.80;;;;;;;19.85;57.26;97915.50;219210;1274;22549;-70
2022/05/24 10:22:30;;;;;;;8.70;4.80;;;;;;;20.00;57.54;97914.58;219403;1274;24274;-68
2022/05/24 10:28:01;;;;;;;7.70;5.00;;;;;;;20.15;57.37;97918.23;224109;1274;22556;-68
2022/05/24 10:40:03;;;;;;;8.60;5.50;;;;;;;20.90;57.30;97921.71;219145;1274;22858;-69
2022/05/24 10:45:12;;;;;;;5.30;4.30;;;;;;;21.16;56.78;97930.36;219461;1274;24807;-69
2022/05/24 10:50:43;;;;;;;6.90;4.20;;;;;;;21.34;55.94;97928.91;220587;1274;22560;-68
2022/05/24 10:56:28;;;;;;;4.70;4.20;;;;;;;21.80;55.89;97928.67;220787;1274;22568;-69
2022/05/24 11:01:56;;;;;;;4.80;4.10;;;;;;;22.47;54.96;97922.39;219959;1273;22562;-68
2022/05/24 11:07:33;;;;;;;6.10;4.50;;;;;;;23.05;53.26;97920.44;218919;1274;22841;-69
2022/05/24 11:12:43;;;;;;;5.20;4.20;;;;;;;23.44;51.92;97916.38;221259;1274;22549;-69
2022/05/24 11:17:46;;;;;;;14.90;13.30;;;;;;;23.74;51.05;97916.58;220901;1274;24409;-71
2022/05/24 11:23:15;;;;;;;6.40;5.40;;;;;;;23.82;49.95;97919.91;220912;1273;25306;-69
2022/05/24 11:28:23;;;;;;;4.90;4.40;;;;;;;24.01;49.56;97920.00;221004;1274;22628;-69
2022/05/24 11:33:44;;;;;;;5.40;4.40;;;;;;;23.94;49.27;97921.27;218880;1274;22560;-70
2022/05/24 11:38:49;;;;;;;5.80;5.10;;;;;;;23.85;49.06;97922.02;221753;1274;22636;-70
2022/05/24 11:43:51;;;;;;;6.20;4.80;;;;;;;23.85;49.16;97917.88;219626;1274;25863;-69
2022/05/24 11:49:09;;;;;;;5.10;4.60;;;;;;;24.01;49.18;97914.22;218809;1274;25427;-69
2022/05/24 11:54:42;;;;;;;5.80;5.10;;;;;;;23.86;48.01;97914.67;219191;1274;22552;-70
2022/05/24 12:00:01;;;;;;;6.10;5.30;;;;;;;23.55;48.35;97911.18;218942;1274;22731;-69
2022/05/24 12:11:05;;;;;;;6.40;4.90;;;;;;;23.97;48.76;97913.77;218339;1274;3943289;-69
2022/05/24 12:16:39;;;;;;;5.10;4.60;;;;;;;24.27;48.08;97906.86;218848;1274;24937;-69
2022/05/24 12:21:57;;;;;;;5.20;4.80;;;;;;;23.99;47.68;97907.73;218797;1273;22915;-69
2022/05/24 12:27:55;;;;;;;6.40;4.40;;;;;;;23.90;47.87;97905.13;219144;1274;22762;-69
2022/05/24 12:33:18;;;;;;;6.50;5.20;;;;;;;23.78;47.43;97904.86;218442;1274;24309;-69
2022/05/24 12:38:25;;;;;;;5.60;4.60;;;;;;;23.59;47.82;97904.14;218987;1274;22940;-69
2022/05/24 12:43:27;;;;;;;5.40;4.90;;;;;;;23.55;48.13;97902.29;218737;1274;25252;-69
2022/05/24 12:48:37;;;;;;;9.40;4.90;;;;;;;23.68;48.37;97898.17;224793;1273;25774;-70
2022/05/24 12:53:42;;;;;;;7.40;5.20;;;;;;;24.10;48.69;97894.94;224711;1273;22557;-69
2022/05/24 12:58:50;;;;;;;6.80;4.90;;;;;;;24.37;48.03;97897.09;219117;1274;22605;-69
2022/05/24 13:04:10;;;;;;;6.90;5.80;;;;;;;24.13;47.40;97902.18;226084;1273;23165;-67
2022/05/24 13:09:55;;;;;;;8.40;6.00;;;;;;;23.80;47.97;97904.45;218753;1274;22633;-69
2022/05/24 13:15:15;;;;;;;7.60;5.90;;;;;;;23.56;48.03;97908.14;219090;1274;22556;-69
2022/05/24 13:20:17;;;;;;;6.60;6.00;;;;;;;23.55;48.75;97905.89;220129;1274;23565;-69
2022/05/24 13:25:48;;;;;;;6.00;4.60;;;;;;;23.79;48.47;97909.06;218944;1274;23926;-70
2022/05/24 13:36:20;;;;;;;4.10;3.70;;;;;;;23.30;47.84;97913.92;221384;1274;24225;-72
2022/05/24 13:42:00;;;;;;;4.00;3.60;;;;;;;22.94;48.60;97920.29;221597;1273;22687;-69
2022/05/24 13:47:46;;;;;;;5.60;3.70;;;;;;;22.64;49.03;97917.34;222059;1273;22592;-69
2022/05/24 13:52:55;;;;;;;4.20;3.80;;;;;;;22.48;49.56;97926.38;220479;1273;22937;-69
2022/05/24 13:57:57;;;;;;;;;;;;;;;22.25;50.01;97929.67;218763;1274;23145;-70
2022/05/24 14:03:17;;;;;;;4.50;3.50;;;;;;;21.92;51.52;97940.48;219346;1274;22585;-69
2022/05/24 14:08:56;;;;;;;5.00;3.50;;;;;;;21.53;53.59;97940.08;219578;1274;25434;-71
2022/05/24 14:13:57;;;;;;;3.60;3.10;;;;;;;21.15;54.85;97944.12;221170;1274;22590;-69
2022/05/24 14:19:06;;;;;;;4.00;3.60;;;;;;;20.88;55.67;97952.19;221237;1274;23033;-70
2022/05/24 14:24:14;;;;;;;3.80;3.20;;;;;;;20.67;56.13;97959.00;219685;1273;22546;-70
2022/05/24 14:29:22;;;;;;;3.40;3.00;;;;;;;20.26;57.51;97963.95;219697;1276;22693;-69
2022/05/24 14:34:25;;;;;;;3.90;3.50;;;;;;;19.80;58.90;97973.51;220400;1273;22543;-70
2022/05/24 14:39:27;;;;;;;3.50;3.20;;;;;;;19.43;60.60;97975.81;219473;1274;25249;-70
2022/05/24 14:44:41;;;;;;;5.30;3.10;;;;;;;19.11;61.71;97984.19;219571;1274;22604;-69
2022/05/24 14:49:55;;;;;;;3.70;3.40;;;;;;;18.83;63.11;97984.83;219660;1274;22548;-70
2022/05/24 14:55:22;;;;;;;4.90;3.70;;;;;;;18.58;64.39;97983.75;219599;1274;22547;-69
2022/05/24 15:00:27;;;;;;;7.00;6.10;;;;;;;18.42;65.58;97983.23;219673;1274;22840;-69
2022/05/24 15:05:55;;;;;;;5.40;4.10;;;;;;;18.26;67.09;97983.19;219565;1273;22583;-69
2022/05/24 15:16:25;;;;;;;5.00;3.80;;;;;;;17.95;68.73;97979.17;219835;1274;24403;-69
2022/05/24 15:21:50;;;;;;;;;;;;;;;;;;;;;
2022/05/24 15:26:58;;;;;;;4.90;4.20;;;;;;;17.78;70.14;97993.29;221174;1275;22637;-70
2022/05/24 15:32:32;;;;;;;4.90;4.50;;;;;;;17.84;70.48;97995.18;219400;1273;22535;-70
2022/05/24 15:37:37;;;;;;;4.40;3.70;;;;;;;17.88;70.53;98000.91;219410;1274;22618;-70
2022/05/24 15:42:43;;;;;;;6.30;5.40;;;;;;;17.82;71.10;97998.61;220901;1274;22563;-70
2022/05/24 15:47:54;;;;;;;4.70;4.10;;;;;;;17.71;71.40;97995.21;221259;1274;23052;-69
2022/05/24 15:53:02;;;;;;;6.00;5.10;;;;;;;17.68;71.90;97992.52;219508;1273;22572;-70
2022/05/24 15:58:21;;;;;;;6.30;5.30;;;;;;;17.74;72.26;97994.82;219596;1274;22534;-69
2022/05/24 16:03:47;;;;;;;9.40;7.20;;;;;;;17.80;72.61;98001.45;219320;1274;25407;-70
2022/05/24 16:14:30;;;;;;;11.40;8.40;;;;;;;17.87;72.56;97999.58;222331;1273;22541;-70
2022/05/24 16:20:01;;;;;;;11.00;7.30;;;;;;;17.85;72.60;98005.80;219683;1274;24732;-70
2022/05/24 16:25:19;;;;;;;8.90;7.00;;;;;;;17.79;72.85;98010.39;219231;1274;24143;-69
2022/05/24 16:30:25;;;;;;;7.30;6.60;;;;;;;17.76;72.98;98019.85;219856;1274;22557;-69
2022/05/24 16:35:27;;;;;;;6.80;6.10;;;;;;;17.74;73.06;98028.33;219573;1274;22574;-69
2022/05/24 16:40:33;;;;;;;7.80;6.50;;;;;;;17.69;73.20;98034.23;219686;1273;22540;-71
2022/05/24 16:45:43;;;;;;;7.70;6.50;;;;;;;17.67;73.32;98041.95;220735;1274;22557;-71
2022/05/24 16:50:52;;;;;;;7.00;6.30;;;;;;;17.66;73.37;98044.88;221205;1273;24334;-70
2022/05/24 17:01:21;;;;;;;7.50;6.20;;;;;;;17.66;73.17;98045.64;220975;1274;24364;-71
2022/05/24 17:06:24;;;;;;;6.60;6.00;;;;;;;17.65;73.14;98046.94;222003;1273;22539;-69
2022/05/24 17:11:26;;;;;;;6.10;5.50;;;;;;;17.58;73.36;98052.19;219475;1274;22570;-70
2022/05/24 17:16:29;;;;;;;6.80;6.20;;;;;;;17.47;73.57;98054.05;219912;1273;22632;-70
2022/05/24 17:21:31;;;;;;;6.20;5.60;;;;;;;17.38;73.75;98060.86;219840;1273;22692;-69
2022/05/24 17:26:54;;;;;;;6.60;5.90;;;;;;;17.32;74.08;98061.80;219705;1274;25930;-69
2022/05/24 17:32:02;;;;;;;12.90;11.50;;;;;;;17.26;74.39;98070.09;220185;1274;22586;-69
2022/05/24 17:37:06;;;;;;;6.90;6.30;;;;;;;17.17;74.82;98071.80;220945;1276;22539;-70
2022/05/24 17:42:13;;;;;;;7.10;6.30;;;;;;;17.03;75.45;98072.39;221091;1274;22562;-70
2022/05/24 17:47:15;;;;;;;7.30;6.70;;;;;;;16.92;76.03;98077.20;221018;1274;22604;-70
2022/05/24 17:52:21;;;;;;;7.50;6.70;;;;;;;16.86;76.24;98075.87;220988;1273;22604;-70
2022/05/24 17:57:24;;;;;;;7.40;6.70;;;;;;;16.83;76.57;98074.95;221094;1274;22620;-70
2022/05/24 18:02:26;;;;;;;7.70;7.00;;;;;;;16.79;76.83;98085.13;219650;1273;22715;-71
2022/05/24 18:07:28;;;;;;;9.30;8.40;;;;;;;16.78;77.06;98094.84;219245;1273;22958;-70
2022/05/24 18:12:48;;;;;;;8.60;7.80;;;;;;;16.78;77.29;98107.35;220128;1273;24295;-69
2022/05/24 18:17:58;;;;;;;10.50;9.40;;;;;;;16.75;77.45;98103.80;219607;1274;25260;-69
2022/05/24 18:23:39;;;;;;;13.20;10.80;;;;;;;16.68;77.84;98105.08;219675;1274;22802;-70
2022/05/24 18:34:08;;;;;;;9.70;8.80;;;;;;;16.56;78.54;98111.32;219613;1274;22534;-69
2022/05/24 18:39:10;;;;;;;10.20;9.10;;;;;;;16.56;78.64;98115.58;220112;1273;22547;-70
2022/05/24 18:44:12;;;;;;;9.70;8.80;;;;;;;16.57;78.72;98116.84;219200;1274;22568;-70
2022/05/24 18:49:15;;;;;;;10.10;9.10;;;;;;;16.59;78.88;98122.77;219926;1274;22544;-70
2022/05/24 18:54:18;;;;;;;10.50;8.80;;;;;;;16.61;78.98;98121.58;220238;1274;22695;-69
2022/05/24 18:59:20;;;;;;;10.10;9.10;;;;;;;16.62;79.09;98126.40;219834;1274;23115;-70
2022/05/24 19:04:23;;;;;;;10.00;8.70;;;;;;;16.60;79.07;98134.05;221316;1274;24453;-70
2022/05/24 19:09:25;;;;;;;11.30;10.20;;;;;;;16.56;79.54;98138.30;221167;1274;22541;-70
2022/05/24 19:14:34;;;;;;;12.30;11.00;;;;;;;16.55;79.71;98141.65;220964;1273;24305;-70
2022/05/24 19:19:41;;;;;;;11.60;10.40;;;;;;;16.55;79.85;98152.45;219948;1274;22560;-71
2022/05/24 19:24:43;;;;;;;11.60;10.50;;;;;;;16.54;79.86;98162.17;219451;1273;24286;-71
2022/05/24 19:29:52;;;;;;;10.60;9.50;;;;;;;16.53;79.95;98164.68;219744;1273;24212;-71
2022/05/24 19:34:55;;;;;;;11.90;10.10;;;;;;;16.52;79.99;98175.38;221398;1274;24232;-71
2022/05/24 19:45:19;;;;;;;12.10;10.90;;;;;;;16.50;80.04;98179.61;220875;1276;23051;-73
2022/05/24 19:50:25;;;;;;;11.90;10.70;;;;;;;16.51;80.13;98179.47;219731;1274;24236;-70
2022/05/24 19:55:27;;;;;;;18.20;16.30;;;;;;;16.52;80.19;98181.88;219536;1273;25440;-72
2022/05/24 20:00:37;;;;;;;;;;;;;;;16.51;80.21;98190.13;219917;1274;22532;-70
2022/05/24 20:05:40;;;;;;;11.70;10.60;;;;;;;16.50;80.32;98199.74;220665;1274;22545;-71
2022/05/24 20:10:43;;;;;;;12.30;10.70;;;;;;;16.51;80.28;98209.11;221142;1274;22617;-70
2022/05/24 20:15:45;;;;;;;11.70;10.50;;;;;;;16.53;80.19;98210.12;221126;1273;22563;-70
2022/05/24 20:20:51;;;;;;;12.60;11.30;;;;;;;16.54;80.12;98207.66;221449;1273;22650;-70
2022/05/24 20:25:53;;;;;;;12.80;11.50;;;;;;;16.54;80.12;98214.77;221128;1274;25381;-71
2022/05/24 20:30:58;;;;;;;17.50;15.70;;;;;;;16.53;80.10;98223.61;221046;1274;22549;-70
2022/05/24 20:36:05;;;;;;;13.70;12.20;;;;;;;16.51;80.22;98226.28;221179;1274;22579;-69
2022/05/24 20:41:10;;;;;;;14.20;12.40;;;;;;;16.51;80.30;98229.88;219789;1274;22551;-71
2022/05/24 20:46:17;;;;;;;13.20;11.90;;;;;;;16.52;80.27;98227.92;220861;1276;25389;-70
2022/05/24 20:51:23;;;;;;;13.40;12.10;;;;;;;16.54;80.33;98228.30;221567;1274;22704;-70
2022/05/24 20:56:34;;;;;;;14.10;12.70;;;;;;;16.58;80.16;98231.64;221309;1274;22483;-70
2022/05/24 21:01:40;;;;;;;13.80;12.20;;;;;;;16.60;80.08;98229.06;219590;1274;25377;-70
2022/05/24 21:06:44;;;;;;;13.80;12.40;;;;;;;16.60;79.96;98222.67;219451;1277;24046;-70
2022/05/24 21:11:46;;;;;;;15.50;13.00;;;;;;;16.60;80.11;98211.86;221041;1276;22545;-69
2022/05/24 21:16:50;;;;;;;14.40;12.90;;;;;;;16.58;80.06;98208.80;219851;1274;22560;-69
2022/05/24 21:22:02;;;;;;;14.40;13.00;;;;;;;16.56;80.17;98209.04;219636;1274;22602;-70
2022/05/24 21:38:02;;;;;;;16.80;15.00;;;;;;;16.41;80.44;98200.88;219809;1274;24307;-70
2022/05/24 21:43:05;;;;;;;16.20;14.60;;;;;;;16.32;80.67;98199.53;219899;1274;25814;-71
2022/05/24 21:48:16;;;;;;;17.30;15.60;;;;;;;16.23;81.04;98203.76;220234;1274;22628;-70
2022/05/24 21:53:20;;;;;;;21.60;15.80;;;;;;;16.12;81.20;98206.03;220109;1274;24351;-70
2022/05/24 21:58:23;;;;;;;19.40;16.40;;;;;;;16.05;81.40;98212.08;219965;1277;24072;-71
2022/05/24 22:03:30;;;;;;;17.40;15.50;;;;;;;16.02;81.63;98212.14;219893;1274;25395;-70
2022/05/24 22:08:37;;;;;;;19.50;17.40;;;;;;;16.00;81.76;98217.55;219959;1274;26984;-70
2022/05/24 22:13:40;;;;;;;21.30;17.70;;;;;;;15.96;81.91;98219.12;219615;1276;24681;-71
2022/05/24 22:18:46;;;;;;;22.10;18.10;;;;;;;15.95;81.99;98215.83;219382;1274;25366;-70
2022/05/24 22:23:52;;;;;;;19.90;17.30;;;;;;;15.96;82.23;98214.95;220056;1273;22536;-71
2022/05/24 22:28:58;;;;;;;20.00;17.80;;;;;;;15.97;82.25;98225.46;219220;1277;25175;-70
2022/05/24 22:34:02;;;;;;;19.20;17.10;;;;;;;15.97;82.18;98225.30;219564;1274;22577;-71
2022/05/24 22:39:04;;;;;;;21.40;18.20;;;;;;;15.97;82.16;98228.17;220937;1273;22560;-70
2022/05/24 22:44:55;;;;;;;21.90;18.00;;;;;;;15.97;82.42;98230.39;219520;1273;22582;-70
2022/05/24 22:49:38;;;;;;;21.90;19.00;;;;;;;15.95;82.32;98227.95;219327;1276;22548;-71
2022/05/24 22:54:41;;;;;;;20.60;18.40;;;;;;;15.94;82.32;98228.15;219193;1276;25644;-68
2022/05/24 22:59:44;;;;;;;20.80;17.80;;;;;;;15.94;82.50;98238.89;220291;1273;24161;-69
2022/05/24 23:04:47;;;;;;;21.10;18.90;;;;;;;15.91;82.57;98237.79;220634;1277;22981;-71
2022/05/24 23:09:50;;;;;;;21.70;18.90;;;;;;;15.91;82.59;98230.78;219422;1274;22566;-70
2022/05/24 23:14:53;;;;;;;21.60;18.50;;;;;;;15.91;82.77;98229.14;220493;1274;22577;-69
2022/05/24 23:20:10;;;;;;;20.80;18.30;;;;;;;15.87;82.78;98223.86;219469;1277;22734;-70
2022/05/24 23:25:13;;;;;;;22.40;19.60;;;;;;;15.87;82.85;98215.95;221202;1274;22716;-70
2022/05/24 23:30:15;;;;;;;20.90;18.00;;;;;;;15.88;82.89;98217.57;219833;1274;25889;-69
2022/05/24 23:35:21;;;;;;;22.00;19.50;;;;;;;15.90;83.08;98213.84;220805;1274;23829;-71
2022/05/24 23:40:25;;;;;;;21.00;18.80;;;;;;;15.89;83.08;98212.66;219488;1274;25418;-70
2022/05/24 23:45:27;;;;;;;22.10;18.20;;;;;;;15.89;83.05;98209.55;219889;1274;25296;-69
2022/05/24 23:50:30;;;;;;;21.50;18.90;;;;;;;15.89;83.17;98208.73;219482;1276;22562;-69
2022/05/24 23:55:32;;;;;;;21.80;19.60;;;;;;;15.88;83.12;98216.58;219701;1274;22547;-70
